Time;durP1;ratioP1;P1;durP2;ratioP2;P2;SDS_P1;SDS_P2;PMS_P1;PMS_P2;Temp;Humidity;BMP_temperature;BMP_pressure;BME280_temperature;BME280_humidity;BME280_pressure;Samples;Min_cycle;Max_cycle;Signal;HPM_P1;HPM_P2
2022/11/11 00:03:34;;;;;;;28.75;11.80;;;;;;;7.14;100.00;100664.06;8430755;28;20052;-74
2022/11/11 00:07:34;;;;;;;33.25;10.82;;;;;;;7.13;100.00;100654.41;8426031;28;20123;-75
2022/11/11 00:11:36;;;;;;;28.08;10.82;;;;;;;7.14;100.00;100644.44;8422406;28;20168;-73
2022/11/11 00:15:38;;;;;;;31.80;9.63;;;;;;;7.16;100.00;100642.31;8426784;28;20128;-73
2022/11/11 00:28:19;;;;;;;26.88;9.77;;;;;;;7.29;100.00;100641.16;8426635;28;20158;-74
2022/11/11 00:32:22;;;;;;;28.05;10.00;;;;;;;7.29;100.00;100651.91;8425416;28;20054;-72
2022/11/11 00:36:23;;;;;;;25.25;10.15;;;;;;;7.31;100.00;100649.75;8426929;28;20165;-75
2022/11/11 00:40:24;;;;;;;24.88;9.48;;;;;;;7.28;100.00;100655.66;8425435;28;20461;-73
2022/11/11 00:44:25;;;;;;;25.15;9.73;;;;;;;7.26;100.00;100647.03;8430961;28;20528;-73
2022/11/11 00:52:46;;;;;;;22.42;9.75;;;;;;;7.30;100.00;100658.88;8425751;28;20044;-73
2022/11/11 00:56:47;;;;;;;34.08;10.32;;;;;;;7.25;100.00;100645.38;8407596;28;20051;-72
2022/11/11 01:00:54;;;;;;;27.33;10.00;;;;;;;7.25;100.00;100656.13;8425574;28;20044;-74
2022/11/11 01:04:55;;;;;;;29.98;10.45;;;;;;;7.24;100.00;100662.59;8438581;28;20486;-73
2022/11/11 01:08:56;;;;;;;27.00;10.13;;;;;;;7.27;100.00;100659.41;8394692;28;20099;-72
2022/11/11 01:13:10;;;;;;;28.00;10.60;;;;;;;7.20;100.00;100663.06;8445803;28;20044;-73
2022/11/11 01:17:11;;;;;;;29.10;10.93;;;;;;;7.15;100.00;100668.38;8429906;28;20040;-73
2022/11/11 01:21:13;;;;;;;28.83;11.90;;;;;;;7.09;100.00;100669.38;8433559;28;20043;-73
2022/11/11 01:25:15;;;;;;;30.15;11.52;;;;;;;7.04;100.00;100666.59;8419381;28;20052;-73
2022/11/11 01:29:15;;;;;;;28.63;12.38;;;;;;;7.03;100.00;100664.97;8431708;28;20044;-73
2022/11/11 01:33:17;;;;;;;29.52;12.43;;;;;;;7.02;100.00;100663.38;8434992;28;20422;-73
2022/11/11 01:37:17;;;;;;;25.02;11.23;;;;;;;6.98;100.00;100661.44;8431868;28;20612;-74
2022/11/11 01:41:31;;;;;;;32.35;10.57;;;;;;;6.96;100.00;100664.38;8436584;28;20113;-73
2022/11/11 01:46:00;;;;;;;27.92;10.93;;;;;;;6.93;100.00;100643.34;8436583;28;20425;-74
2022/11/11 01:50:01;;;;;;;22.77;9.90;;;;;;;6.92;100.00;100644.44;8264590;28;20053;-72
2022/11/11 01:54:09;;;;;;;28.25;9.32;;;;;;;6.93;100.00;100632.59;8268157;28;20125;-72
2022/11/11 01:58:14;;;;;;;22.65;9.43;;;;;;;6.88;100.00;100635.22;8240620;28;20050;-74
2022/11/11 02:02:27;;;;;;;23.08;9.05;;;;;;;6.83;100.00;100637.84;8247842;28;20056;-73
2022/11/11 02:06:28;;;;;;;21.52;7.78;;;;;;;6.86;100.00;100637.38;8232398;28;20050;-74
2022/11/11 02:10:31;;;;;;;25.42;8.20;;;;;;;6.83;100.00;100629.78;8271748;28;20191;-73
2022/11/11 02:14:41;;;;;;;28.40;8.00;;;;;;;6.84;100.00;100634.09;8267108;28;20504;-73
2022/11/11 02:18:42;;;;;;;30.10;8.48;;;;;;;6.88;100.00;100645.97;8259619;28;20054;-73
2022/11/11 02:22:48;;;;;;;20.25;7.93;;;;;;;6.95;100.00;100653.84;8273875;28;20078;-73
2022/11/11 02:26:49;;;;;;;18.48;7.25;;;;;;;7.02;100.00;100658.00;8393153;28;20054;-73
2022/11/11 02:30:50;;;;;;;19.80;7.45;;;;;;;7.03;100.00;100648.88;8432088;28;20418;-73
2022/11/11 02:34:51;;;;;;;23.65;8.10;;;;;;;7.02;100.00;100663.38;8433908;28;20076;-74
2022/11/11 02:38:52;;;;;;;21.92;8.68;;;;;;;7.03;100.00;100659.59;8441063;28;20039;-74
2022/11/11 02:42:54;;;;;;;19.45;9.45;;;;;;;7.00;100.00;100660.13;8404847;28;20043;-74
2022/11/11 02:46:55;;;;;;;25.77;9.57;;;;;;;6.96;100.00;100648.25;8432347;28;20048;-74
2022/11/11 02:50:56;;;;;;;24.20;9.32;;;;;;;6.90;100.00;100633.13;8429699;28;20439;-73
2022/11/11 02:54:57;;;;;;;23.48;8.30;;;;;;;6.83;100.00;100632.47;8431554;28;20051;-74
2022/11/11 02:58:58;;;;;;;18.73;8.05;;;;;;;6.78;100.00;100629.72;8415107;28;20517;-74
2022/11/11 03:02:59;;;;;;;29.00;8.82;;;;;;;6.74;100.00;100634.78;8437413;28;20120;-75
2022/11/11 03:07:00;;;;;;;22.63;8.13;;;;;;;6.75;100.00;100647.16;8439381;28;20044;-74
2022/11/11 03:11:01;;;;;;;24.92;8.57;;;;;;;6.78;100.00;100646.63;8448003;28;20100;-74
2022/11/11 03:15:02;;;;;;;22.73;8.55;;;;;;;6.80;100.00;100649.09;8432253;28;20452;-73
2022/11/11 03:19:03;;;;;;;19.90;8.55;;;;;;;6.83;100.00;100648.56;8433099;28;20040;-73
2022/11/11 03:23:12;;;;;;;27.13;8.40;;;;;;;6.84;100.00;100644.84;8439234;28;20477;-73
2022/11/11 03:27:14;;;;;;;19.55;8.07;;;;;;;6.88;100.00;100651.34;8427883;28;20048;-73
2022/11/11 03:31:15;;;;;;;21.70;7.63;;;;;;;6.96;100.00;100664.38;8428178;28;20562;-73
2022/11/11 03:35:16;;;;;;;21.45;7.60;;;;;;;7.05;100.00;100668.25;8427502;28;20055;-73
2022/11/11 03:39:17;;;;;;;24.08;8.07;;;;;;;7.10;100.00;100675.56;8427790;28;20040;-74
2022/11/11 03:43:20;;;;;;;19.60;7.95;;;;;;;7.15;100.00;100671.06;8438103;28;20097;-73
2022/11/11 03:47:21;;;;;;;19.73;7.43;;;;;;;7.19;100.00;100680.25;8434319;28;20046;-73
2022/11/11 03:51:22;;;;;;;24.80;7.32;;;;;;;7.25;100.00;100688.38;8435216;28;20044;-74
2022/11/11 03:55:23;;;;;;;16.85;7.40;;;;;;;7.25;100.00;100683.00;8393227;28;20036;-73
2022/11/11 03:59:24;;;;;;;26.95;7.53;;;;;;;7.28;100.00;100677.16;8431953;28;20085;-73
2022/11/11 04:12:17;;;;;;;20.65;7.53;;;;;;;7.22;100.00;100679.78;8282842;28;20056;-74
2022/11/11 04:16:19;;;;;;;18.83;7.03;;;;;;;7.20;100.00;100692.63;8269047;28;20129;-73
2022/11/11 04:29:27;;;;;;;19.75;6.65;;;;;;;7.10;100.00;100691.69;8250637;28;20058;-74
2022/11/11 04:33:28;;;;;;;;;;;;;;;7.04;100.00;100693.47;8215618;28;20046;-73
2022/11/11 04:37:34;;;;;;;17.98;5.93;;;;;;;7.04;100.00;100690.78;8214784;28;20406;-74
2022/11/11 04:41:36;;;;;;;23.63;6.03;;;;;;;7.06;100.00;100699.41;8255872;28;20054;-73
2022/11/11 04:45:37;;;;;;;20.20;6.38;;;;;;;7.05;100.00;100700.47;8267277;28;20132;-75
2022/11/11 04:49:38;;;;;;;13.15;5.82;;;;;;;7.05;100.00;100700.47;8387074;28;20040;-74
2022/11/11 04:53:39;;;;;;;18.40;5.88;;;;;;;7.06;100.00;100696.75;8379313;28;20080;-74
2022/11/11 04:57:46;;;;;;;16.20;5.95;;;;;;;6.98;100.00;100689.09;8359446;28;20049;-73
2022/11/11 05:10:26;;;;;;;17.05;6.03;;;;;;;6.91;100.00;100677.72;8377138;28;20049;-74
2022/11/11 05:23:06;;;;;;;18.65;5.32;;;;;;;7.17;99.64;100682.38;8395443;28;20548;-73
2022/11/11 05:27:07;;;;;;;15.68;4.90;;;;;;;7.19;99.44;100674.88;8372411;28;20052;-74
2022/11/11 05:31:08;;;;;;;19.40;5.20;;;;;;;7.21;99.39;100678.13;8369480;28;20128;-73
2022/11/11 05:35:11;;;;;;;19.02;5.63;;;;;;;7.26;99.29;100668.50;8413546;28;20443;-73
2022/11/11 05:39:12;;;;;;;17.35;5.85;;;;;;;7.24;99.42;100676.84;8423678;28;20036;-73
2022/11/11 05:43:12;;;;;;;17.80;7.00;;;;;;;7.21;99.52;100688.88;8413198;28;20139;-73
2022/11/11 05:47:14;;;;;;;20.92;7.47;;;;;;;7.15;99.41;100689.88;8414617;28;20558;-74
2022/11/11 05:51:26;;;;;;;27.35;10.23;;;;;;;7.06;99.90;100691.38;8427434;28;20102;-74
2022/11/11 05:55:27;;;;;;;27.27;9.70;;;;;;;7.00;99.94;100708.47;8420391;28;20036;-73
2022/11/11 05:59:29;;;;;;;27.92;10.57;;;;;;;6.96;100.00;100723.44;8435138;28;20135;-73
2022/11/11 06:03:30;;;;;;;27.13;11.23;;;;;;;6.88;100.00;100721.16;8431963;28;20050;-74
2022/11/11 06:07:30;;;;;;;28.88;12.93;;;;;;;6.83;100.00;100723.78;8431114;28;20426;-73
2022/11/11 06:11:32;;;;;;;29.30;13.60;;;;;;;6.79;100.00;100728.00;8430863;28;20059;-74
2022/11/11 06:15:37;;;;;;;38.83;13.93;;;;;;;6.78;100.00;100716.44;8415727;28;20044;-74
2022/11/11 06:19:38;;;;;;;29.67;12.93;;;;;;;6.81;100.00;100709.78;8429996;28;20040;-73
2022/11/11 06:23:39;;;;;;;31.65;12.10;;;;;;;6.84;100.00;100714.66;8419726;28;20063;-74
2022/11/11 06:27:40;;;;;;;21.80;10.73;;;;;;;6.90;100.00;100723.63;8386390;28;20051;-73
2022/11/11 06:31:41;;;;;;;26.98;11.32;;;;;;;6.95;100.00;100721.81;8405542;28;20045;-73
2022/11/11 06:35:43;;;;;;;25.83;11.55;;;;;;;7.03;100.00;100736.72;8409414;28;20062;-74
2022/11/11 06:39:44;;;;;;;27.25;13.00;;;;;;;7.02;99.80;100733.22;8409413;28;20063;-74
2022/11/11 06:43:45;;;;;;;35.35;13.40;;;;;;;7.06;99.96;100731.66;8404171;28;20101;-74
2022/11/11 06:47:46;;;;;;;37.78;15.15;;;;;;;7.06;99.63;100734.34;8411631;28;20048;-73
2022/11/11 06:51:47;;;;;;;25.50;13.52;;;;;;;7.03;100.00;100734.81;8412529;28;20064;-74
2022/11/11 06:55:51;;;;;;;28.10;11.02;;;;;;;7.08;99.98;100716.13;8428635;28;20136;-73
2022/11/11 06:59:52;;;;;;;27.40;10.63;;;;;;;7.21;99.99;100710.38;8448236;28;20505;-73
2022/11/11 07:03:53;;;;;;;24.88;10.13;;;;;;;7.38;99.14;100710.34;8440927;28;20047;-73
2022/11/11 07:07:54;;;;;;;19.08;8.27;;;;;;;7.47;99.04;100708.03;8404038;28;20048;-73
2022/11/11 07:11:58;;;;;;;21.42;9.52;;;;;;;7.57;98.38;100713.53;8434357;28;20043;-74
2022/11/11 07:15:59;;;;;;;23.50;8.20;;;;;;;7.63;98.23;100718.72;8433932;28;20382;-72
2022/11/11 07:20:00;;;;;;;20.77;8.63;;;;;;;7.74;97.69;100714.28;8392446;28;20051;-74
2022/11/11 07:24:01;;;;;;;20.23;8.07;;;;;;;7.82;97.36;100711.19;8432084;28;20566;-74
2022/11/11 07:28:02;;;;;;;23.15;7.95;;;;;;;7.93;96.76;100707.50;8408840;28;20044;-73
2022/11/11 07:32:03;;;;;;;21.15;7.95;;;;;;;7.97;96.47;100708.66;8432552;28;20408;-72
2022/11/11 07:36:04;;;;;;;26.88;9.23;;;;;;;8.04;95.98;100703.88;8407722;28;20055;-73
2022/11/11 07:40:06;;;;;;;20.45;8.48;;;;;;;8.07;95.78;100714.16;8389455;28;20052;-72
2022/11/11 07:44:07;;;;;;;26.15;8.73;;;;;;;8.16;95.39;100716.38;8408847;28;20056;-72
2022/11/11 07:48:08;;;;;;;23.70;8.38;;;;;;;8.26;94.44;100724.53;8362472;28;20058;-73
2022/11/11 07:52:09;;;;;;;24.83;8.70;;;;;;;8.30;93.89;100725.72;8410235;28;20040;-74
2022/11/11 07:56:10;;;;;;;25.25;9.00;;;;;;;8.38;93.78;100719.84;8414007;28;20047;-73
2022/11/11 08:00:11;;;;;;;23.27;9.95;;;;;;;8.41;93.16;100724.72;8348054;28;20044;-73
2022/11/11 08:04:13;;;;;;;19.85;9.10;;;;;;;8.46;92.73;100735.53;8390096;28;20734;-75
2022/11/11 08:08:13;;;;;;;24.15;9.15;;;;;;;8.51;92.79;100741.00;8407240;28;20139;-75
2022/11/11 08:16:34;;;;;;;28.95;10.57;;;;;;;8.56;91.88;100749.13;8412873;28;20048;-75
2022/11/11 08:20:36;;;;;;;26.77;10.35;;;;;;;8.60;91.58;100744.84;8402708;28;20139;-73
2022/11/11 08:24:37;;;;;;;20.15;9.10;;;;;;;8.69;91.42;100754.06;8404881;28;20059;-72
2022/11/11 08:28:38;;;;;;;19.35;9.68;;;;;;;8.75;91.00;100754.94;8419231;28;20097;-72
2022/11/11 08:32:39;;;;;;;19.83;9.02;;;;;;;8.82;90.34;100764.44;8408697;28;20494;-73
2022/11/11 08:36:40;;;;;;;25.90;9.48;;;;;;;8.93;90.14;100772.59;8418417;28;20048;-74
2022/11/11 08:40:41;;;;;;;23.45;9.57;;;;;;;9.01;89.95;100766.72;8412917;28;20036;-73
2022/11/11 08:44:42;;;;;;;26.95;9.60;;;;;;;9.08;89.80;100751.16;8407837;28;20520;-72
2022/11/11 08:48:43;;;;;;;21.45;8.98;;;;;;;9.12;89.38;100752.25;8417817;28;20032;-73
2022/11/11 08:52:46;;;;;;;24.27;8.85;;;;;;;9.19;89.00;100769.84;8409649;28;20139;-74
2022/11/11 08:56:47;;;;;;;20.67;8.68;;;;;;;9.28;88.55;100767.47;8403308;28;20072;-72
2022/11/11 09:00:48;;;;;;;24.45;8.95;;;;;;;9.33;87.87;100754.00;8367175;28;20044;-73
2022/11/11 09:04:49;;;;;;;29.35;9.15;;;;;;;9.38;87.95;100762.13;8408393;28;20421;-72
2022/11/11 09:08:50;;;;;;;26.65;9.55;;;;;;;9.43;87.66;100767.56;8407212;28;20497;-73
2022/11/11 09:12:57;;;;;;;20.50;9.20;;;;;;;9.46;87.28;100780.53;8415136;28;20051;-74
2022/11/11 09:16:58;;;;;;;19.92;8.68;;;;;;;9.52;87.05;100782.16;8415742;28;20091;-74
2022/11/11 09:20:59;;;;;;;27.90;8.60;;;;;;;9.64;86.40;100780.09;8414836;28;20040;-73
2022/11/11 09:25:01;;;;;;;18.00;9.05;;;;;;;9.77;85.64;100780.69;8388760;28;20135;-74
2022/11/11 09:29:01;;;;;;;25.02;9.70;;;;;;;9.87;85.38;100786.13;8409617;28;20089;-74
2022/11/11 09:33:04;;;;;;;20.48;8.07;;;;;;;9.96;84.92;100789.94;8410037;28;20040;-74
2022/11/11 09:37:04;;;;;;;23.23;8.38;;;;;;;10.02;84.31;100788.91;8403150;28;20131;-73
2022/11/11 09:41:11;;;;;;;20.98;8.32;;;;;;;10.09;83.68;100778.69;8411646;28;20059;-74
2022/11/11 09:45:15;;;;;;;15.45;7.70;;;;;;;10.19;82.92;100776.03;8392280;28;20151;-73
2022/11/11 09:49:25;;;;;;;18.98;7.25;;;;;;;10.28;83.54;100754.72;8398231;28;20044;-73
2022/11/11 09:53:39;;;;;;;23.08;6.63;;;;;;;10.35;82.99;100753.41;8421738;28;20526;-74
2022/11/11 09:57:45;;;;;;;18.63;6.40;;;;;;;10.45;81.62;100761.50;8411590;28;20048;-73
2022/11/11 10:01:52;;;;;;;14.40;6.10;;;;;;;10.58;81.74;100771.78;8416285;28;20139;-73
2022/11/11 10:06:09;;;;;;;13.07;6.57;;;;;;;10.73;80.96;100771.00;8353698;28;20533;-72
2022/11/11 10:10:45;;;;;;;15.43;7.32;;;;;;;10.87;80.34;100769.38;8364146;28;20049;-72
2022/11/11 10:14:49;;;;;;;22.48;7.35;;;;;;;10.85;79.52;100766.13;8414977;28;20494;-74
2022/11/11 10:18:53;;;;;;;15.82;7.32;;;;;;;10.91;80.15;100770.47;8409704;28;20119;-74
2022/11/11 10:23:21;;;;;;;14.93;7.03;;;;;;;10.97;79.87;100768.56;8421509;28;20486;-73
2022/11/11 10:27:22;;;;;;;15.80;7.55;;;;;;;10.97;79.90;100763.16;8286852;28;20448;-73
2022/11/11 10:31:24;;;;;;;19.80;6.72;;;;;;;10.94;79.62;100763.72;8296788;28;20054;-73
2022/11/11 10:35:28;;;;;;;22.35;7.95;;;;;;;10.97;79.84;100757.75;8281680;28;20062;-73
2022/11/11 10:40:14;;;;;;;19.92;8.15;;;;;;;10.98;79.97;100764.78;8292241;28;20076;-74
2022/11/11 10:44:19;;;;;;;17.90;7.25;;;;;;;11.00;80.10;100751.81;8292955;28;20169;-73
2022/11/11 10:48:24;;;;;;;20.52;8.70;;;;;;;11.06;80.40;100756.13;8293072;28;20128;-73
2022/11/11 10:52:32;;;;;;;18.98;8.50;;;;;;;11.02;79.78;100765.88;8262923;28;20137;-73
2022/11/11 10:56:33;;;;;;;;;;;;;;;11.11;80.00;100758.00;8262068;28;20043;-73
2022/11/11 11:00:34;;;;;;;21.80;8.93;;;;;;;11.09;79.61;100765.59;8262084;28;20016;-74
2022/11/11 11:04:41;;;;;;;16.92;7.03;;;;;;;11.13;79.57;100756.66;8323655;28;20053;-73
2022/11/11 11:08:46;;;;;;;19.08;8.02;;;;;;;11.14;80.08;100747.47;8352252;28;20534;-73
2022/11/11 11:13:03;;;;;;;18.15;7.82;;;;;;;11.16;79.70;100756.13;8351711;28;20049;-72
2022/11/11 11:17:11;;;;;;;20.13;7.80;;;;;;;11.20;80.18;100757.22;8334158;28;20041;-73
2022/11/11 11:21:12;;;;;;;;;;;;;;;11.26;79.61;100758.81;8357570;28;20097;-73
2022/11/11 11:25:13;;;;;;;18.33;7.93;;;;;;;11.25;79.25;100759.91;8410077;28;19920;-74
2022/11/11 11:29:27;;;;;;;18.50;8.68;;;;;;;11.30;79.33;100735.56;8381846;28;20486;-74
2022/11/11 11:33:58;;;;;;;18.95;7.63;;;;;;;11.38;79.25;100743.09;8404564;28;20490;-74
2022/11/11 11:37:59;;;;;;;19.50;6.32;;;;;;;11.49;78.34;100737.66;8402880;28;20051;-74
2022/11/11 11:42:00;;;;;;;13.00;5.03;;;;;;;11.55;77.36;100725.75;8367627;28;20139;-74
2022/11/11 11:46:04;;;;;;;15.82;5.10;;;;;;;11.60;76.66;100728.44;8421605;28;20052;-73
2022/11/11 11:50:29;;;;;;;13.85;5.05;;;;;;;11.65;76.45;100723.00;8382636;28;20742;-74
2022/11/11 11:54:55;;;;;;;12.32;4.60;;;;;;;11.69;76.35;100727.56;8404809;28;20063;-73
2022/11/11 11:59:14;;;;;;;15.00;5.53;;;;;;;11.80;75.96;100731.09;8396683;28;20044;-73
2022/11/11 12:03:18;;;;;;;13.63;5.28;;;;;;;11.92;75.76;100728.88;8403019;28;20040;-72
2022/11/11 12:08:08;;;;;;;15.50;5.72;;;;;;;12.02;75.17;100720.69;8383131;28;20041;-73
2022/11/11 12:12:19;;;;;;;18.08;5.55;;;;;;;12.08;75.13;100719.59;8290159;28;20048;-72
2022/11/11 12:16:30;;;;;;;13.57;5.13;;;;;;;12.11;75.03;100713.59;8265959;28;20480;-73
2022/11/11 12:21:26;;;;;;;12.82;4.82;;;;;;;12.09;75.41;100704.97;8289980;28;20054;-73
2022/11/11 12:26:02;;;;;;;16.05;5.78;;;;;;;12.14;76.11;100702.22;8100133;29;20093;-73
2022/11/11 12:30:06;;;;;;;19.50;6.97;;;;;;;12.08;76.23;100703.34;8073676;29;20053;-73
2022/11/11 12:34:34;;;;;;;12.57;5.40;;;;;;;12.08;76.28;100706.03;8069577;29;20072;-72
2022/11/11 12:38:49;;;;;;;11.98;5.60;;;;;;;12.04;76.43;100702.28;8072309;29;20041;-74
2022/11/11 12:42:56;;;;;;;16.23;5.80;;;;;;;12.02;76.35;100704.44;8038889;29;20073;-72
2022/11/11 12:47:16;;;;;;;17.00;6.00;;;;;;;11.94;76.23;100707.75;8040385;29;20056;-74
2022/11/11 12:51:32;;;;;;;11.68;5.25;;;;;;;11.93;76.35;100711.56;8012012;29;20084;-74
2022/11/11 12:55:45;;;;;;;18.38;6.38;;;;;;;11.87;76.99;100696.41;8041611;29;20060;-73
2022/11/11 12:59:53;;;;;;;15.52;6.40;;;;;;;11.82;77.59;100715.38;8076498;29;20049;-73
2022/11/11 13:03:57;;;;;;;17.08;6.72;;;;;;;11.85;78.16;100714.81;8182997;28;20489;-71
2022/11/11 13:07:58;;;;;;;14.65;6.20;;;;;;;11.84;78.62;100707.81;8265403;28;20081;-74
2022/11/11 13:11:59;;;;;;;18.73;7.35;;;;;;;11.83;78.97;100695.34;8290961;28;20080;-74
2022/11/11 13:16:00;;;;;;;23.58;8.90;;;;;;;11.75;79.42;100694.03;8323496;28;20045;-73
2022/11/11 13:20:23;;;;;;;18.42;8.60;;;;;;;11.77;79.85;100699.16;8318820;28;20056;-73
2022/11/11 13:24:24;;;;;;;19.88;8.73;;;;;;;11.70;80.03;100685.09;8305216;28;20045;-73
2022/11/11 13:28:44;;;;;;;17.15;7.78;;;;;;;11.69;79.91;100694.28;8416043;28;20045;-74
2022/11/11 13:32:57;;;;;;;22.67;9.15;;;;;;;11.62;80.12;100704.63;8386424;28;20041;-75
2022/11/11 13:37:01;;;;;;;18.38;8.10;;;;;;;11.58;80.51;100719.81;8396563;28;20549;-73
2022/11/11 13:41:07;;;;;;;21.08;8.40;;;;;;;11.56;80.93;100716.53;8415799;28;20067;-74
2022/11/11 13:45:24;;;;;;;24.70;8.48;;;;;;;11.54;81.01;100718.72;8366241;28;20557;-73
2022/11/11 13:49:33;;;;;;;20.38;9.32;;;;;;;11.51;81.57;100705.75;8401300;28;20044;-74
2022/11/11 13:53:37;;;;;;;21.95;9.95;;;;;;;11.47;81.70;100701.97;8406415;28;20041;-74
2022/11/11 13:57:48;;;;;;;27.48;10.20;;;;;;;11.42;82.11;100706.28;8404417;28;20040;-74
2022/11/11 14:02:18;;;;;;;21.23;10.73;;;;;;;11.37;82.32;100710.91;8405822;28;20040;-74
2022/11/11 14:06:19;;;;;;;21.17;9.70;;;;;;;11.31;82.24;100715.56;8417267;28;20581;-73
2022/11/11 14:10:20;;;;;;;22.02;8.77;;;;;;;11.25;82.42;100727.47;8407707;28;20037;-73
2022/11/11 14:14:33;;;;;;;19.42;9.23;;;;;;;11.17;82.50;100725.28;8415302;28;20072;-74
2022/11/11 14:18:38;;;;;;;23.45;9.38;;;;;;;11.07;82.74;100717.19;8407749;28;20052;-73
2022/11/11 14:22:39;;;;;;;18.05;9.93;;;;;;;11.01;82.73;100710.97;8310904;28;20062;-74
2022/11/11 14:26:40;;;;;;;22.30;9.10;;;;;;;10.99;81.87;100717.75;8326526;28;20091;-75
2022/11/11 14:30:42;;;;;;;25.05;9.05;;;;;;;10.95;80.87;100711.25;8309454;28;20038;-75
2022/11/11 14:35:01;;;;;;;20.45;7.90;;;;;;;10.86;80.55;100707.50;8308970;28;20824;-73
2022/11/11 14:39:17;;;;;;;15.00;6.53;;;;;;;10.81;80.07;100721.00;8301326;28;20164;-73
2022/11/11 14:43:37;;;;;;;18.33;6.18;;;;;;;10.77;79.42;100719.94;8327306;28;20041;-73
2022/11/11 14:47:39;;;;;;;13.13;5.38;;;;;;;10.75;78.04;100716.69;8325673;28;20052;-75
2022/11/11 14:51:43;;;;;;;12.35;5.50;;;;;;;10.70;77.38;100708.56;8292810;28;20442;-73
2022/11/11 14:55:51;;;;;;;20.00;6.25;;;;;;;10.67;76.77;100709.94;8325373;28;20498;-73
2022/11/11 14:59:54;;;;;;;13.75;6.38;;;;;;;10.66;76.04;100712.91;8380670;28;20055;-73
2022/11/11 15:03:55;;;;;;;16.58;6.22;;;;;;;10.61;76.04;100715.59;8333713;28;20094;-73
2022/11/11 15:08:15;;;;;;;13.73;5.38;;;;;;;10.52;76.27;100713.44;8357156;28;20118;-73
2022/11/11 15:12:46;;;;;;;11.48;5.90;;;;;;;10.45;76.08;100721.00;8413546;28;20063;-72
2022/11/11 15:17:26;;;;;;;16.33;5.38;;;;;;;10.38;76.36;100720.44;8419522;28;20044;-73
2022/11/11 15:21:37;;;;;;;13.07;5.38;;;;;;;10.37;76.16;100716.13;8270869;28;20062;-72
2022/11/11 15:25:52;;;;;;;15.10;5.28;;;;;;;10.34;75.88;100716.66;8269574;28;20125;-73
2022/11/11 15:30:01;;;;;;;17.83;5.32;;;;;;;10.32;76.03;100713.41;8266445;28;20591;-73
2022/11/11 15:34:14;;;;;;;19.10;6.75;;;;;;;10.32;75.73;100726.91;8262170;28;20413;-73
2022/11/11 15:38:17;;;;;;;19.35;8.07;;;;;;;10.22;76.03;100724.19;8261875;28;20138;-73
2022/11/11 15:42:27;;;;;;;19.60;6.63;;;;;;;10.13;76.46;100718.47;8252363;28;20133;-73
2022/11/11 15:46:29;;;;;;;14.02;5.82;;;;;;;10.10;76.59;100720.88;8261830;28;20038;-74
2022/11/11 15:50:35;;;;;;;12.63;5.35;;;;;;;10.06;76.52;100730.59;8262503;28;20053;-73
2022/11/11 15:54:38;;;;;;;14.15;4.82;;;;;;;10.02;76.69;100734.91;8244379;28;20065;-73
2022/11/11 15:58:39;;;;;;;16.65;5.10;;;;;;;10.04;76.25;100732.78;8381585;28;20052;-72
2022/11/11 16:02:40;;;;;;;13.63;5.53;;;;;;;10.01;76.17;100733.28;8415219;28;20399;-72
2022/11/11 16:06:42;;;;;;;28.25;10.93;;;;;;;9.98;76.26;100750.03;8396480;28;20135;-73
2022/11/11 16:10:43;;;;;;;76.22;28.70;;;;;;;9.97;76.20;100743.00;8387403;28;20059;-73
2022/11/11 16:14:45;;;;;;;20.08;7.68;;;;;;;9.93;76.44;100736.50;8403724;28;20056;-74
2022/11/11 16:18:52;;;;;;;20.05;6.85;;;;;;;9.92;76.47;100740.28;8397203;28;20048;-73
2022/11/11 16:22:56;;;;;;;55.40;24.23;;;;;;;9.87;76.58;100748.34;8404237;28;20127;-73
2022/11/11 16:26:59;;;;;;;16.98;5.72;;;;;;;9.90;76.25;100747.81;8394758;28;20048;-73
2022/11/11 16:31:30;;;;;;;23.30;9.80;;;;;;;9.82;76.46;100741.06;8370748;28;20045;-75
2022/11/11 16:35:39;;;;;;;13.75;4.50;;;;;;;9.83;76.61;100747.25;8412577;28;20087;-74
2022/11/11 16:39:41;;;;;;;30.30;15.73;;;;;;;9.84;76.19;100743.47;8401803;28;20044;-72
2022/11/11 16:43:42;;;;;;;12.45;5.38;;;;;;;9.82;76.16;100734.84;8406451;28;20479;-73
2022/11/11 16:47:48;;;;;;;11.57;5.30;;;;;;;9.84;75.84;100738.06;8406027;28;20064;-74
2022/11/11 16:51:49;;;;;;;12.85;4.70;;;;;;;9.87;75.72;100737.56;8388122;28;20103;-73
2022/11/11 16:55:50;;;;;;;14.18;5.72;;;;;;;9.85;75.75;100737.00;8421167;28;20048;-73
2022/11/11 16:59:55;;;;;;;14.23;4.50;;;;;;;9.88;75.30;100733.78;8386850;28;20080;-73
2022/11/11 17:03:58;;;;;;;15.30;6.95;;;;;;;9.87;75.19;100742.97;8416139;28;20086;-73
2022/11/11 17:07:59;;;;;;;24.25;9.13;;;;;;;9.85;75.28;100747.78;8419557;28;20128;-74
2022/11/11 17:12:00;;;;;;;11.25;4.60;;;;;;;9.82;75.14;100751.03;8393584;28;20043;-73
2022/11/11 17:16:04;;;;;;;15.60;6.97;;;;;;;9.76;75.65;100755.59;8414804;28;20047;-74
2022/11/11 17:20:19;;;;;;;11.93;4.63;;;;;;;9.73;75.83;100754.22;8416137;28;20117;-73
2022/11/11 17:24:20;;;;;;;9.18;4.63;;;;;;;9.67;76.00;100754.47;8419765;28;20103;-73
2022/11/11 17:28:23;;;;;;;12.15;4.43;;;;;;;9.62;76.26;100757.94;8419675;28;20040;-72
2022/11/11 17:32:24;;;;;;;11.93;4.88;;;;;;;9.55;76.56;100757.38;8363600;28;20041;-73
2022/11/11 17:36:25;;;;;;;13.23;4.10;;;;;;;9.48;76.71;100756.78;8418343;28;20418;-73
2022/11/11 17:40:26;;;;;;;13.23;5.30;;;;;;;9.44;77.05;100761.09;8420962;28;20044;-74
2022/11/11 17:44:27;;;;;;;87.50;29.73;;;;;;;9.39;77.32;100771.84;8411675;28;20048;-73
2022/11/11 17:48:28;;;;;;;40.75;14.70;;;;;;;9.28;78.02;100773.66;8414047;28;20133;-73
2022/11/11 17:52:29;;;;;;;59.35;23.15;;;;;;;9.20;78.07;100770.66;8416763;28;20051;-74
2022/11/11 17:56:30;;;;;;;26.40;11.05;;;;;;;9.12;78.46;100773.81;8412452;28;20115;-74
2022/11/11 18:00:31;;;;;;;18.42;9.00;;;;;;;9.04;78.71;100771.63;8417595;28;20064;-74
2022/11/11 18:04:32;;;;;;;62.13;26.95;;;;;;;8.93;79.30;100780.69;8357876;28;20053;-73
2022/11/11 18:08:33;;;;;;;18.13;8.13;;;;;;;8.84;79.62;100778.44;8414199;28;20060;-74
2022/11/11 18:12:34;;;;;;;26.63;10.27;;;;;;;8.71;80.07;100784.25;8346357;28;20054;-74
2022/11/11 18:16:35;;;;;;;20.45;8.48;;;;;;;8.57;80.82;100777.66;8338849;28;20042;-73
2022/11/11 18:20:36;;;;;;;17.05;8.05;;;;;;;8.47;81.15;100782.94;8344089;28;20522;-73
2022/11/11 18:24:38;;;;;;;20.13;8.90;;;;;;;8.37;81.67;100775.56;8338722;28;20045;-74
2022/11/11 18:28:39;;;;;;;30.05;12.98;;;;;;;8.29;81.88;100776.00;8348465;28;20087;-74
2022/11/11 18:32:40;;;;;;;38.20;19.35;;;;;;;8.25;82.45;100779.47;8349896;28;20049;-74
2022/11/11 18:36:41;;;;;;;23.67;10.15;;;;;;;8.22;82.40;100771.88;8341102;28;20045;-74
2022/11/11 18:40:43;;;;;;;17.95;8.95;;;;;;;8.21;82.71;100778.31;8332515;28;20474;-72
2022/11/11 18:44:43;;;;;;;21.08;11.05;;;;;;;8.19;82.83;100775.91;8343975;28;20048;-74
2022/11/11 18:48:45;;;;;;;15.98;8.27;;;;;;;8.25;82.67;100780.25;8361895;28;20044;-74
2022/11/11 18:52:46;;;;;;;18.02;11.32;;;;;;;8.38;82.23;100773.69;8416744;28;20048;-74
2022/11/11 18:56:47;;;;;;;15.98;10.27;;;;;;;8.43;82.32;100776.44;8412360;28;20032;-74
2022/11/11 19:00:48;;;;;;;23.20;7.88;;;;;;;8.46;82.13;100775.91;8409364;28;20151;-74
2022/11/11 19:04:49;;;;;;;16.85;6.50;;;;;;;8.48;82.33;100784.56;8418343;28;20497;-74
2022/11/11 19:09:05;;;;;;;15.65;7.57;;;;;;;8.67;81.07;100783.13;8375450;28;20052;-74
2022/11/11 19:13:06;;;;;;;13.20;6.05;;;;;;;8.72;81.12;100779.69;8412613;28;20494;-74
2022/11/11 19:17:08;;;;;;;13.00;6.40;;;;;;;8.67;81.47;100783.13;8412128;28;20136;-72
2022/11/11 19:21:15;;;;;;;16.40;6.30;;;;;;;8.70;81.30;100782.63;8415044;28;20036;-74
2022/11/11 19:25:16;;;;;;;16.42;6.28;;;;;;;8.74;81.15;100783.75;8425054;28;20044;-74
2022/11/11 19:29:17;;;;;;;15.00;5.80;;;;;;;8.80;80.65;100777.34;8373594;28;20161;-72
2022/11/11 19:33:18;;;;;;;18.35;6.25;;;;;;;8.89;80.39;100770.41;8404020;28;20050;-72
2022/11/11 19:37:21;;;;;;;16.88;6.45;;;;;;;8.83;80.80;100776.81;8412987;28;20044;-73
2022/11/11 19:41:24;;;;;;;12.00;5.50;;;;;;;8.78;80.89;100773.25;8427524;28;20083;-74
2022/11/11 19:45:25;;;;;;;14.88;6.68;;;;;;;8.77;80.95;100777.84;8418530;28;20082;-73